createdAt,value
2022-08-30T00:00:30.902Z,9.443648
2022-08-30T00:01:30.536Z,9.443651
2022-08-30T00:02:30.672Z,9.443769
2022-08-30T00:03:30.745Z,9.443776
2022-08-30T00:04:30.505Z,9.443771
2022-08-30T00:05:30.520Z,9.443661
2022-08-30T00:06:30.482Z,9.443709
2022-08-30T00:07:30.475Z,9.443748
2022-08-30T00:08:30.472Z,9.443798
2022-08-30T00:09:30.469Z,9.443833
2022-08-30T00:10:30.461Z,9.443773
2022-08-30T00:11:30.453Z,9.443715
2022-08-30T00:12:30.440Z,9.443724
2022-08-30T00:13:30.452Z,9.443732
2022-08-30T00:14:30.450Z,9.443738
2022-08-30T00:15:30.519Z,9.443769
2022-08-30T00:16:30.417Z,9.443800
2022-08-30T00:17:30.421Z,9.443710
2022-08-30T00:18:30.402Z,9.443690
2022-08-30T00:19:30.391Z,9.443679
2022-08-30T00:20:31.389Z,9.443685
2022-08-30T00:21:30.389Z,9.443667
2022-08-30T00:22:30.365Z,9.443699
2022-08-30T00:23:30.378Z,9.443701
2022-08-30T00:24:30.398Z,9.443685
2022-08-30T00:25:30.377Z,9.443692
2022-08-30T00:26:30.357Z,9.443603
2022-08-30T00:27:30.349Z,9.443627
2022-08-30T00:28:30.350Z,9.443648
2022-08-30T00:29:30.374Z,9.443584
2022-08-30T00:30:30.339Z,9.443671
2022-08-30T00:31:30.389Z,9.443555
2022-08-30T00:32:30.394Z,9.443643
2022-08-30T00:33:30.322Z,9.443710
2022-08-30T00:34:30.318Z,9.443681
2022-08-30T00:35:30.317Z,9.443642
2022-08-30T00:36:30.289Z,9.443620
2022-08-30T00:37:30.294Z,9.443593
2022-08-30T00:38:30.278Z,9.443608
2022-08-30T00:39:30.305Z,9.443652
2022-08-30T00:40:30.309Z,9.443662
2022-08-30T00:41:30.268Z,9.443685
2022-08-30T00:42:30.247Z,9.443652
2022-08-30T00:43:30.247Z,9.443637
2022-08-30T00:44:31.237Z,9.443649
2022-08-30T00:45:30.263Z,9.443674
2022-08-30T00:46:30.331Z,9.443696
2022-08-30T00:47:30.217Z,9.443670
2022-08-30T00:48:30.233Z,9.443666
2022-08-30T00:49:30.207Z,9.443698
2022-08-30T00:50:30.219Z,9.443697
2022-08-30T00:51:30.205Z,9.443707
2022-08-30T00:52:30.191Z,9.443724
2022-08-30T00:53:30.183Z,9.443738
2022-08-30T00:54:30.201Z,9.443733
2022-08-30T00:55:30.181Z,9.443744
2022-08-30T00:56:30.179Z,9.443753
2022-08-30T00:57:30.159Z,9.443720
2022-08-30T00:58:30.152Z,9.443721
2022-08-30T00:59:30.144Z,9.443697
2022-08-30T01:00:30.141Z,9.443720
2022-08-30T01:02:02.163Z,9.443671
2022-08-30T01:02:30.201Z,9.443656
2022-08-30T01:03:30.140Z,9.443706
2022-08-30T01:04:30.099Z,9.443703
2022-08-30T01:05:31.104Z,9.443656
2022-08-30T01:06:32.383Z,9.443680
2022-08-30T01:07:30.096Z,9.443701
2022-08-30T01:08:30.094Z,9.443734
2022-08-30T01:09:30.080Z,9.443774
2022-08-30T01:10:30.059Z,9.443777
2022-08-30T01:11:30.068Z,9.443762
2022-08-30T01:12:30.080Z,9.443739
2022-08-30T01:13:30.040Z,9.443749
2022-08-30T01:14:30.055Z,9.443745
2022-08-30T01:15:30.058Z,9.443787
2022-08-30T01:16:30.038Z,9.443819
2022-08-30T01:17:30.027Z,9.443821
2022-08-30T01:18:30.012Z,9.443798
2022-08-30T01:19:30.003Z,9.443760
2022-08-30T01:20:30.019Z,9.443826
2022-08-30T01:21:29.995Z,9.443780
2022-08-30T01:22:29.998Z,9.443792
2022-08-30T01:23:30.015Z,9.443780
2022-08-30T01:24:30.005Z,9.443771
2022-08-30T01:25:29.975Z,9.443769
2022-08-30T01:26:29.961Z,9.443767
2022-08-30T01:27:29.980Z,9.443792
2022-08-30T01:28:29.940Z,9.443826
2022-08-30T01:29:29.942Z,9.443773
2022-08-30T01:30:30.027Z,9.443769
2022-08-30T01:31:29.938Z,9.443745
2022-08-30T01:32:29.940Z,9.443768
2022-08-30T01:33:29.931Z,9.443805
2022-08-30T01:34:29.907Z,9.443769
2022-08-30T01:35:29.915Z,9.443782
2022-08-30T01:36:29.915Z,9.443770
2022-08-30T01:37:29.900Z,9.443714
2022-08-30T01:38:29.879Z,9.443642
2022-08-30T01:39:29.883Z,9.443682
2022-08-30T01:40:30.099Z,9.443685
2022-08-30T01:41:29.873Z,9.443713
2022-08-30T01:42:29.924Z,9.443679
2022-08-30T01:43:29.844Z,9.443689
2022-08-30T01:44:29.847Z,9.443622
2022-08-30T01:45:29.847Z,9.443562
2022-08-30T01:46:29.883Z,9.443720
2022-08-30T01:47:29.851Z,9.443685
2022-08-30T01:48:31.047Z,9.443679
2022-08-30T01:49:29.808Z,9.443784
2022-08-30T01:50:29.821Z,9.443790
2022-08-30T01:51:29.835Z,9.443763
2022-08-30T01:52:29.840Z,9.443759
2022-08-30T01:53:29.803Z,9.443743
2022-08-30T01:54:36.564Z,9.443725
2022-08-30T01:55:30.811Z,9.443725
2022-08-30T01:56:29.762Z,9.443782
2022-08-30T01:57:29.775Z,9.443810
2022-08-30T01:58:29.784Z,9.443790
2022-08-30T01:59:29.739Z,9.443795
2022-08-30T02:00:29.747Z,9.443817
2022-08-30T02:01:29.831Z,9.443764
2022-08-30T02:02:29.711Z,9.443767
2022-08-30T02:03:29.759Z,9.443723
2022-08-30T02:04:29.709Z,9.443734
2022-08-30T02:05:29.699Z,9.443723
2022-08-30T02:06:29.695Z,9.443763
2022-08-30T02:07:29.676Z,9.443769
2022-08-30T02:08:29.671Z,9.443718
2022-08-30T02:09:29.687Z,9.443706
2022-08-30T02:10:29.668Z,9.443697
2022-08-30T02:11:29.670Z,9.443732
2022-08-30T02:12:29.647Z,9.443774
2022-08-30T02:13:29.644Z,9.443720
2022-08-30T02:14:29.662Z,9.443749
2022-08-30T02:15:29.727Z,9.443795
2022-08-30T02:16:29.723Z,9.443719
2022-08-30T02:17:29.646Z,9.443742
2022-08-30T02:18:29.612Z,9.443704
2022-08-30T02:19:29.614Z,9.443723
2022-08-30T02:20:29.603Z,9.443769
2022-08-30T02:21:29.588Z,9.443715
2022-08-30T02:22:29.591Z,9.443754
2022-08-30T02:23:29.579Z,9.443768
2022-08-30T02:24:29.571Z,9.443782
2022-08-30T02:25:29.576Z,9.443748
2022-08-30T02:26:29.558Z,9.443757
2022-08-30T02:27:29.548Z,9.443748
2022-08-30T02:28:29.556Z,9.443665
2022-08-30T02:29:29.542Z,9.443646
2022-08-30T02:30:29.621Z,9.443755
2022-08-30T02:31:29.527Z,9.443807
2022-08-30T02:32:29.515Z,9.443742
2022-08-30T02:33:29.502Z,9.443742
2022-08-30T02:34:29.522Z,9.443715
2022-08-30T02:35:29.483Z,9.443698
2022-08-30T02:36:29.578Z,9.443694
2022-08-30T02:37:29.487Z,9.443710
2022-08-30T02:38:29.475Z,9.443766
2022-08-30T02:39:29.496Z,9.443802
2022-08-30T02:40:29.534Z,9.443785
2022-08-30T02:41:29.438Z,9.443806
2022-08-30T02:42:29.442Z,9.443773
2022-08-30T02:43:29.439Z,9.443800
2022-08-30T02:44:29.427Z,9.443784
2022-08-30T02:45:29.459Z,9.443776
2022-08-30T02:46:34.571Z,9.443804
2022-08-30T02:47:30.414Z,9.443799
2022-08-30T02:48:29.407Z,9.443793
2022-08-30T02:49:33.538Z,9.443782
2022-08-30T02:50:30.406Z,9.443793
2022-08-30T02:51:29.419Z,9.443730
2022-08-30T02:52:29.382Z,9.443747
2022-08-30T02:53:29.366Z,9.443688
2022-08-30T02:54:29.366Z,9.443633
2022-08-30T02:55:29.378Z,9.443765
2022-08-30T02:56:29.347Z,9.443782
2022-08-30T02:57:29.338Z,9.443766
2022-08-30T02:58:29.375Z,9.443765
2022-08-30T02:59:29.330Z,9.443754
2022-08-30T03:00:29.323Z,9.443783
2022-08-30T03:01:29.572Z,9.443790
2022-08-30T03:02:30.310Z,9.443737
2022-08-30T03:03:29.357Z,9.443712
2022-08-30T03:04:29.330Z,9.443769
2022-08-30T03:05:29.298Z,9.443686
2022-08-30T03:06:29.291Z,9.443615
2022-08-30T03:07:29.270Z,9.443832
2022-08-30T03:08:29.270Z,9.443837
2022-08-30T03:09:29.251Z,9.443826
2022-08-30T03:10:29.245Z,9.443756
2022-08-30T03:11:29.262Z,9.443749
2022-08-30T03:12:29.238Z,9.443763
2022-08-30T03:13:29.854Z,9.443824
2022-08-30T03:14:29.223Z,9.443770
2022-08-30T03:15:29.254Z,9.443752
2022-08-30T03:16:29.308Z,9.443688
2022-08-30T03:17:29.198Z,9.443642
2022-08-30T03:18:29.838Z,9.443637
2022-08-30T03:19:29.215Z,9.443711
2022-08-30T03:20:29.190Z,9.443766
2022-08-30T03:21:29.177Z,9.443739
2022-08-30T03:22:29.161Z,9.443714
2022-08-30T03:23:29.442Z,9.443673
2022-08-30T03:24:29.145Z,9.443682
2022-08-30T03:25:29.144Z,9.443744
2022-08-30T03:26:29.140Z,9.443719
2022-08-30T03:27:29.147Z,9.443447
2022-08-30T03:28:29.124Z,9.443640
2022-08-30T03:29:29.175Z,9.443674
2022-08-30T03:30:29.113Z,9.443722
2022-08-30T03:31:29.144Z,9.443761
2022-08-30T03:32:29.165Z,9.443763
2022-08-30T03:33:29.104Z,9.443718
2022-08-30T03:34:29.075Z,9.443737
2022-08-30T03:35:29.096Z,9.443710
2022-08-30T03:36:29.077Z,9.443707
2022-08-30T03:37:29.064Z,9.443592
2022-08-30T03:38:29.094Z,9.443658
2022-08-30T03:39:29.065Z,9.443770
2022-08-30T03:40:29.116Z,9.443706
2022-08-30T03:41:29.808Z,9.443728
2022-08-30T03:42:29.044Z,9.443737
2022-08-30T03:43:29.029Z,9.443733
2022-08-30T03:44:29.017Z,9.443827
2022-08-30T03:45:29.060Z,9.443732
2022-08-30T03:46:29.008Z,9.443671
2022-08-30T03:47:29.066Z,9.443650
2022-08-30T03:48:29.008Z,9.443620
2022-08-30T03:49:29.008Z,9.443751
2022-08-30T03:50:28.972Z,9.443804
2022-08-30T03:51:28.977Z,9.443748
2022-08-30T03:52:28.992Z,9.443727
2022-08-30T03:53:28.969Z,9.443748
2022-08-30T03:54:28.965Z,9.443759
2022-08-30T03:55:28.941Z,9.443819
2022-08-30T03:56:28.944Z,9.443769
2022-08-30T03:57:28.944Z,9.443714
2022-08-30T03:58:28.929Z,9.443820
2022-08-30T03:59:28.920Z,9.443869
2022-08-30T04:00:28.922Z,9.443847
2022-08-30T04:01:28.934Z,9.443800
2022-08-30T04:02:28.939Z,9.443826
2022-08-30T04:03:28.924Z,9.443854
2022-08-30T04:04:28.888Z,9.443805
2022-08-30T04:05:28.872Z,9.443756
2022-08-30T04:06:28.883Z,9.443755
2022-08-30T04:07:28.865Z,9.443764
2022-08-30T04:08:28.864Z,9.443769
2022-08-30T04:09:28.851Z,9.443769
2022-08-30T04:10:28.831Z,9.443814
2022-08-30T04:11:28.835Z,9.443896
2022-08-30T04:12:28.822Z,9.443762
2022-08-30T04:13:28.852Z,9.443750
2022-08-30T04:14:28.820Z,9.443643
2022-08-30T04:15:28.799Z,9.443730
2022-08-30T04:16:28.858Z,9.443715
2022-08-30T04:17:28.796Z,9.443721
2022-08-30T04:18:28.797Z,9.443824
2022-08-30T04:19:28.769Z,9.443743
2022-08-30T04:20:28.775Z,9.443587
2022-08-30T04:21:28.779Z,9.443643
2022-08-30T04:22:28.767Z,9.443654
2022-08-30T04:23:28.767Z,9.443769
2022-08-30T04:24:28.751Z,9.443597
2022-08-30T04:25:28.735Z,9.443466
2022-08-30T04:26:29.520Z,9.443434
2022-08-30T04:27:28.736Z,9.443677
2022-08-30T04:28:28.728Z,9.443728
2022-08-30T04:29:28.721Z,9.443785
2022-08-30T04:30:28.692Z,9.443748
2022-08-30T04:31:28.796Z,9.443732
2022-08-30T04:32:28.715Z,9.443691
2022-08-30T04:33:28.711Z,9.443673
2022-08-30T04:34:28.672Z,9.443575
2022-08-30T04:35:28.647Z,9.443705
2022-08-30T04:36:28.667Z,9.443743
2022-08-30T04:37:28.640Z,9.443657
2022-08-30T04:38:30.451Z,9.443525
2022-08-30T04:39:29.659Z,9.443667
2022-08-30T04:40:28.703Z,9.443751
2022-08-30T04:41:28.627Z,9.443799
2022-08-30T04:42:28.643Z,9.443647
2022-08-30T04:43:28.615Z,9.443629
2022-08-30T04:44:28.615Z,9.443666
2022-08-30T04:45:28.642Z,9.443660
2022-08-30T04:46:29.590Z,9.443557
2022-08-30T04:47:28.571Z,9.443558
2022-08-30T04:48:28.566Z,9.443579
2022-08-30T04:49:28.628Z,9.443719
2022-08-30T04:50:28.555Z,9.443589
2022-08-30T04:51:28.551Z,9.443652
2022-08-30T04:52:28.537Z,9.443660
2022-08-30T04:53:28.574Z,9.443452
2022-08-30T04:54:28.546Z,9.443695
2022-08-30T04:55:28.527Z,9.443644
2022-08-30T04:56:28.579Z,9.443599
2022-08-30T04:57:28.506Z,9.443553
2022-08-30T04:58:28.511Z,9.443714
2022-08-30T04:59:28.527Z,9.443757
2022-08-30T05:00:28.503Z,9.443635
2022-08-30T05:01:28.767Z,9.443723
2022-08-30T05:02:28.546Z,9.443533
2022-08-30T05:03:28.487Z,9.443648
2022-08-30T05:04:28.470Z,9.443763
2022-08-30T05:05:28.493Z,9.443636
2022-08-30T05:06:28.451Z,9.443691
2022-08-30T05:07:28.459Z,9.443634
2022-08-30T05:08:28.436Z,9.443645
2022-08-30T05:09:28.430Z,9.443654
2022-08-30T05:10:28.443Z,9.443724
2022-08-30T05:11:28.435Z,9.443699
2022-08-30T05:12:28.419Z,9.443701
2022-08-30T05:13:35.574Z,9.443671
2022-08-30T05:14:29.398Z,9.443569
2022-08-30T05:15:28.394Z,9.443637
2022-08-30T05:16:28.439Z,9.443650
2022-08-30T05:17:28.455Z,9.443704
2022-08-30T05:18:28.379Z,9.443767
2022-08-30T05:19:28.377Z,9.443741
2022-08-30T05:20:28.375Z,9.443727
2022-08-30T05:21:28.375Z,9.443746
2022-08-30T05:22:28.346Z,9.443752
2022-08-30T05:23:28.343Z,9.443754
2022-08-30T05:24:28.382Z,9.443739
2022-08-30T05:25:28.318Z,9.443689
2022-08-30T05:26:28.343Z,9.443727
2022-08-30T05:27:28.384Z,9.443698
2022-08-30T05:28:28.299Z,9.443686
2022-08-30T05:29:28.315Z,9.443714
2022-08-30T05:30:28.318Z,9.443698
2022-08-30T05:31:28.345Z,9.443687
2022-08-30T05:32:28.280Z,9.443798
2022-08-30T05:33:28.274Z,9.443745
2022-08-30T05:34:28.276Z,9.443762
2022-08-30T05:35:28.250Z,9.443735
2022-08-30T05:36:28.259Z,9.443784
2022-08-30T05:37:28.250Z,9.443760
2022-08-30T05:38:28.234Z,9.443725
2022-08-30T05:39:28.231Z,9.443732
2022-08-30T05:40:29.402Z,9.443701
2022-08-30T05:41:29.226Z,9.443705
2022-08-30T05:42:28.199Z,9.443714
2022-08-30T05:43:30.012Z,9.443689
2022-08-30T05:44:28.198Z,9.443731
2022-08-30T05:45:28.187Z,9.443729
2022-08-30T05:46:28.267Z,9.443712
2022-08-30T05:47:28.185Z,9.443691
2022-08-30T05:48:29.174Z,9.443689
2022-08-30T05:49:28.163Z,9.443706
2022-08-30T05:50:28.214Z,9.443666
2022-08-30T05:51:28.151Z,9.443673
2022-08-30T05:52:28.149Z,9.443748
2022-08-30T05:53:28.818Z,9.443726
2022-08-30T05:54:28.145Z,9.443754
2022-08-30T05:55:28.134Z,9.443718
2022-08-30T05:56:28.122Z,9.443769
2022-08-30T05:57:28.124Z,9.443751
2022-08-30T05:58:28.088Z,9.443754
2022-08-30T05:59:28.125Z,9.443756
2022-08-30T06:00:28.108Z,9.443769
2022-08-30T06:01:28.137Z,9.443716
2022-08-30T06:02:28.068Z,9.443732
2022-08-30T06:03:28.114Z,9.443733
2022-08-30T06:04:28.067Z,9.443742
2022-08-30T06:05:28.067Z,9.443781
2022-08-30T06:06:28.072Z,9.443784
2022-08-30T06:07:28.038Z,9.443796
2022-08-30T06:08:28.103Z,9.443789
2022-08-30T06:09:28.032Z,9.443724
2022-08-30T06:10:28.109Z,9.443766
2022-08-30T06:11:28.025Z,9.443779
2022-08-30T06:12:28.003Z,9.443761
2022-08-30T06:13:27.999Z,9.443758
2022-08-30T06:14:27.998Z,9.443727
2022-08-30T06:15:27.976Z,9.443738
2022-08-30T06:16:28.057Z,9.443787
2022-08-30T06:17:27.980Z,9.443776
2022-08-30T06:18:28.358Z,9.443743
2022-08-30T06:19:27.973Z,9.443766
2022-08-30T06:20:27.951Z,9.443754
2022-08-30T06:21:27.955Z,9.443756
2022-08-30T06:22:27.939Z,9.443733
2022-08-30T06:23:27.947Z,9.443712
2022-08-30T06:24:53.594Z,9.443725
2022-08-30T06:25:41.327Z,9.443719
2022-08-30T06:26:28.948Z,9.443700
2022-08-30T06:27:27.956Z,9.443702
2022-08-30T06:28:27.886Z,9.443701
2022-08-30T06:29:27.890Z,9.443744
2022-08-30T06:30:27.930Z,9.443760
2022-08-30T06:31:27.950Z,9.443752
2022-08-30T06:32:27.881Z,9.443707
2022-08-30T06:33:27.892Z,9.443726
2022-08-30T06:34:27.874Z,9.443713
2022-08-30T06:35:27.859Z,9.443724
2022-08-30T06:36:27.875Z,9.443674
2022-08-30T06:37:30.048Z,9.443710
2022-08-30T06:38:27.838Z,9.443747
2022-08-30T06:39:27.852Z,9.443753
2022-08-30T06:40:27.946Z,9.443711
2022-08-30T06:41:27.818Z,9.443720
2022-08-30T06:42:27.838Z,9.443690
2022-08-30T06:43:28.703Z,9.443748
2022-08-30T06:44:27.819Z,9.443735
2022-08-30T06:45:27.815Z,9.443735
2022-08-30T06:46:27.917Z,9.443684
2022-08-30T06:47:27.816Z,9.443675
2022-08-30T06:48:27.804Z,9.443759
2022-08-30T06:49:27.787Z,9.443709
2022-08-30T06:50:27.778Z,9.443728
2022-08-30T06:51:27.762Z,9.443744
2022-08-30T06:52:27.786Z,9.443744
2022-08-30T06:53:27.766Z,9.443716
2022-08-30T06:54:27.803Z,9.443686
2022-08-30T06:55:27.738Z,9.443708
2022-08-30T06:56:27.816Z,9.443692
2022-08-30T06:57:27.743Z,9.443664
2022-08-30T06:58:27.719Z,9.443615
2022-08-30T06:59:27.770Z,9.443674
2022-08-30T07:00:27.705Z,9.443607
2022-08-30T07:01:27.807Z,9.443614
2022-08-30T07:02:27.765Z,9.443726
2022-08-30T07:03:27.709Z,9.443762
2022-08-30T07:04:27.718Z,9.443757
2022-08-30T07:05:27.714Z,9.443767
2022-08-30T07:06:27.690Z,9.443766
2022-08-30T07:07:27.709Z,9.443628
2022-08-30T07:08:27.684Z,9.443800
2022-08-30T07:09:27.805Z,9.443772
2022-08-30T07:10:27.667Z,9.443782
2022-08-30T07:11:28.480Z,9.443821
2022-08-30T07:12:28.653Z,9.443787
2022-08-30T07:13:27.648Z,9.443738
2022-08-30T07:14:27.614Z,9.443743
2022-08-30T07:15:27.611Z,9.443717
2022-08-30T07:16:28.360Z,9.443703
2022-08-30T07:17:31.309Z,9.443765
2022-08-30T07:18:29.657Z,9.443767
2022-08-30T07:19:27.615Z,9.443764
2022-08-30T07:20:27.574Z,9.443736
2022-08-30T07:21:28.572Z,9.443710
2022-08-30T07:22:27.576Z,9.443749
2022-08-30T07:23:27.623Z,9.443764
2022-08-30T07:24:27.563Z,9.443760
2022-08-30T07:25:27.569Z,9.443770
2022-08-30T07:26:27.532Z,9.443767
2022-08-30T07:27:27.537Z,9.443769
2022-08-30T07:28:27.571Z,9.443727
2022-08-30T07:29:27.537Z,9.443644
2022-08-30T07:30:27.508Z,9.443668
2022-08-30T07:31:27.488Z,9.443697
2022-08-30T07:32:27.529Z,9.443661
2022-08-30T07:33:27.491Z,9.443682
2022-08-30T07:34:27.620Z,9.443604
2022-08-30T07:35:28.510Z,9.443890
2022-08-30T07:36:27.458Z,9.443641
2022-08-30T07:37:28.370Z,9.443705
2022-08-30T07:38:27.455Z,9.443717
2022-08-30T07:39:27.449Z,9.443726
2022-08-30T07:40:27.511Z,9.443664
2022-08-30T07:41:27.438Z,9.443668
2022-08-30T07:42:28.077Z,9.443791
2022-08-30T07:43:27.410Z,9.443776
2022-08-30T07:44:27.441Z,9.443734
2022-08-30T07:45:27.419Z,9.443661
2022-08-30T07:46:27.576Z,9.443600
2022-08-30T07:47:27.404Z,9.443699
2022-08-30T07:48:27.397Z,9.443778
2022-08-30T07:49:27.388Z,9.443765
2022-08-30T07:50:27.379Z,9.443815
2022-08-30T07:51:27.393Z,9.443756
2022-08-30T07:52:27.448Z,9.443760
2022-08-30T07:53:27.360Z,9.443741
2022-08-30T07:54:27.425Z,9.443776
2022-08-30T07:55:27.348Z,9.443720
2022-08-30T07:56:27.352Z,9.443620
2022-08-30T07:57:27.479Z,9.443769
2022-08-30T07:58:27.352Z,9.443651
2022-08-30T07:59:31.862Z,9.443617
2022-08-30T08:00:27.343Z,9.443747
2022-08-30T08:01:27.396Z,9.443666
2022-08-30T08:02:27.370Z,9.443667
2022-08-30T08:03:27.315Z,9.443678
2022-08-30T08:04:27.291Z,9.443750
2022-08-30T08:05:27.278Z,9.443672
2022-08-30T08:06:27.269Z,9.443648
2022-08-30T08:07:27.291Z,9.443683
2022-08-30T08:08:27.266Z,9.443609
2022-08-30T08:09:27.260Z,9.443688
2022-08-30T08:10:27.230Z,9.443779
2022-08-30T08:11:31.601Z,9.443813
2022-08-30T08:12:29.258Z,9.443728
2022-08-30T08:13:27.927Z,9.443791
2022-08-30T08:14:27.236Z,9.443841
2022-08-30T08:15:27.211Z,9.443815
2022-08-30T08:16:27.220Z,9.443763
2022-08-30T08:17:27.180Z,9.443806
2022-08-30T08:18:27.187Z,9.443846
2022-08-30T08:19:27.200Z,9.443736
2022-08-30T08:20:27.172Z,9.443642
2022-08-30T08:21:27.169Z,9.443760
2022-08-30T08:22:27.159Z,9.443750
2022-08-30T08:23:27.159Z,9.443768
2022-08-30T08:24:27.170Z,9.443745
2022-08-30T08:25:27.150Z,9.443791
2022-08-30T08:26:27.160Z,9.443706
2022-08-30T08:27:27.135Z,9.443723
2022-08-30T08:28:27.103Z,9.443776
2022-08-30T08:29:28.118Z,9.443734
2022-08-30T08:30:27.110Z,9.443783
2022-08-30T08:31:33.572Z,9.443766
2022-08-30T08:32:28.103Z,9.443757
2022-08-30T08:33:27.103Z,9.443796
2022-08-30T08:34:27.092Z,9.443731
2022-08-30T08:35:27.092Z,9.443684
2022-08-30T08:36:27.091Z,9.443750
2022-08-30T08:37:27.931Z,9.443876
2022-08-30T08:38:28.012Z,9.443890
2022-08-30T08:39:27.051Z,9.443838
2022-08-30T08:40:27.141Z,9.443778
2022-08-30T08:41:27.036Z,9.443788
2022-08-30T08:42:27.062Z,9.443872
2022-08-30T08:43:27.053Z,9.443974
2022-08-30T08:44:31.239Z,9.443872
2022-08-30T08:45:28.016Z,9.443948
2022-08-30T08:46:27.113Z,9.443744
2022-08-30T08:47:26.992Z,9.443745
2022-08-30T08:48:32.117Z,9.443743
2022-08-30T08:49:27.992Z,9.443688
2022-08-30T08:50:26.980Z,9.443753
2022-08-30T08:51:26.976Z,9.443776
2022-08-30T08:52:26.970Z,9.443795
2022-08-30T08:53:45.855Z,9.443796
2022-08-30T08:54:28.977Z,9.443794
2022-08-30T08:55:26.961Z,9.443774
2022-08-30T08:56:26.964Z,9.443743
2022-08-30T08:57:26.952Z,9.443842
2022-08-30T08:58:26.923Z,9.443691
2022-08-30T08:59:26.913Z,9.443774
2022-08-30T09:00:26.911Z,9.443823
2022-08-30T09:01:26.978Z,9.443739
2022-08-30T09:02:26.900Z,9.443735
2022-08-30T09:03:26.932Z,9.443732
2022-08-30T09:04:26.878Z,9.443705
2022-08-30T09:05:26.917Z,9.443769
2022-08-30T09:06:26.941Z,9.443763
2022-08-30T09:07:26.894Z,9.443775
2022-08-30T09:08:26.879Z,9.443739
2022-08-30T09:09:26.877Z,9.443774
2022-08-30T09:10:46.910Z,9.443762
2022-08-30T09:11:28.853Z,9.443780
2022-08-30T09:12:26.853Z,9.443747
2022-08-30T09:13:27.260Z,9.443766
2022-08-30T09:14:30.022Z,9.443754
2022-08-30T09:15:26.862Z,9.443784
2022-08-30T09:16:26.821Z,9.443810
2022-08-30T09:17:26.836Z,9.443750
2022-08-30T09:18:26.854Z,9.443762
2022-08-30T09:19:26.817Z,9.443778
2022-08-30T09:20:26.804Z,9.443780
2022-08-30T09:21:27.784Z,9.443737
2022-08-30T09:22:26.822Z,9.443751
2022-08-30T09:23:26.777Z,9.443756
2022-08-30T09:24:26.780Z,9.443753
2022-08-30T09:25:26.760Z,9.443725
2022-08-30T09:26:26.801Z,9.443738
2022-08-30T09:27:26.752Z,9.443738
2022-08-30T09:28:26.757Z,9.443757
2022-08-30T09:29:26.749Z,9.443772
2022-08-30T09:30:27.201Z,9.443751
2022-08-30T09:31:26.754Z,9.443718
2022-08-30T09:32:26.731Z,9.443762
2022-08-30T09:33:26.727Z,9.443719
2022-08-30T09:34:26.723Z,9.443689
2022-08-30T09:35:26.740Z,9.443771
2022-08-30T09:36:26.726Z,9.443757
2022-08-30T09:37:26.744Z,9.443710
2022-08-30T09:38:26.746Z,9.443651
2022-08-30T09:39:27.771Z,9.443709
2022-08-30T09:40:26.742Z,9.443793
2022-08-30T09:41:26.726Z,9.443870
2022-08-30T09:42:26.689Z,9.443841
2022-08-30T09:43:26.677Z,9.443813
2022-08-30T09:44:26.667Z,9.443776
2022-08-30T09:45:27.883Z,9.443762
2022-08-30T09:46:26.686Z,9.443753
2022-08-30T09:47:26.645Z,9.443757
2022-08-30T09:48:26.738Z,9.443752
2022-08-30T09:49:26.667Z,9.443754
2022-08-30T09:50:26.644Z,9.443734
2022-08-30T09:51:26.650Z,9.443762
2022-08-30T09:52:26.638Z,9.443754
2022-08-30T09:53:26.612Z,9.443734
2022-08-30T09:54:26.628Z,9.443735
2022-08-30T09:55:26.634Z,9.443711
2022-08-30T09:56:26.601Z,9.443735
2022-08-30T09:57:33.839Z,9.443716
2022-08-30T09:58:29.915Z,9.443736
2022-08-30T09:59:27.601Z,9.443749
2022-08-30T10:00:26.561Z,9.443764
2022-08-30T10:01:26.603Z,9.443748
2022-08-30T10:02:28.293Z,9.443731
2022-08-30T10:03:36.277Z,9.443784
2022-08-30T10:04:31.058Z,9.443755
2022-08-30T10:05:27.536Z,9.443726
2022-08-30T10:06:27.929Z,9.443727
2022-08-30T10:07:28.938Z,9.443680
2022-08-30T10:08:26.500Z,9.443723
2022-08-30T10:09:26.507Z,9.443738
2022-08-30T10:10:26.506Z,9.443727
2022-08-30T10:11:26.493Z,9.443698
2022-08-30T10:12:26.491Z,9.443653
2022-08-30T10:13:26.535Z,9.443603
2022-08-30T10:14:26.509Z,9.443630
2022-08-30T10:15:26.476Z,9.443665
2022-08-30T10:16:26.468Z,9.443643
2022-08-30T10:17:27.052Z,9.443676
2022-08-30T10:18:26.448Z,9.443653
2022-08-30T10:19:26.441Z,9.443739
2022-08-30T10:20:26.457Z,9.443667
2022-08-30T10:21:26.474Z,9.443703
2022-08-30T10:22:26.425Z,9.443692
2022-08-30T10:23:26.489Z,9.443651
2022-08-30T10:24:30.115Z,9.443666
2022-08-30T10:25:27.453Z,9.443617
2022-08-30T10:26:26.410Z,9.443674
2022-08-30T10:27:26.433Z,9.443700
2022-08-30T10:28:26.400Z,9.443728
2022-08-30T10:29:26.393Z,9.443687
2022-08-30T10:30:26.397Z,9.443638
2022-08-30T10:31:26.617Z,9.443658
2022-08-30T10:32:26.362Z,9.443667
2022-08-30T10:33:27.369Z,9.443686
2022-08-30T10:34:26.369Z,9.443529
2022-08-30T10:35:28.038Z,9.443590
2022-08-30T10:36:26.392Z,9.443658
2022-08-30T10:37:26.348Z,9.443688
2022-08-30T10:38:26.347Z,9.443691
2022-08-30T10:39:26.331Z,9.443709
2022-08-30T10:40:26.382Z,9.443679
2022-08-30T10:41:26.319Z,9.443611
2022-08-30T10:42:26.440Z,9.443572
2022-08-30T10:43:26.314Z,9.443647
2022-08-30T10:44:26.300Z,9.443629
2022-08-30T10:45:26.287Z,9.443627
2022-08-30T10:46:26.307Z,9.443522
2022-08-30T10:47:26.285Z,9.443574
2022-08-30T10:48:26.283Z,9.443665
2022-08-30T10:49:26.276Z,9.443547
2022-08-30T10:50:26.283Z,9.443646
2022-08-30T10:51:26.279Z,9.443652
2022-08-30T10:52:26.267Z,9.443603
2022-08-30T10:53:26.244Z,9.443635
2022-08-30T10:54:26.260Z,9.443608
2022-08-30T10:55:26.235Z,9.443647
2022-08-30T10:56:26.249Z,9.443638
2022-08-30T10:57:26.328Z,9.443654
2022-08-30T10:58:26.231Z,9.443718
2022-08-30T10:59:26.227Z,9.443705
2022-08-30T11:00:26.206Z,9.443682
2022-08-30T11:01:28.547Z,9.443682
2022-08-30T11:02:27.210Z,9.443667
2022-08-30T11:03:26.211Z,9.443680
2022-08-30T11:04:26.184Z,9.443654
2022-08-30T11:05:26.391Z,9.443660
2022-08-30T11:06:26.195Z,9.443652
2022-08-30T11:07:26.230Z,9.443669
2022-08-30T11:08:26.158Z,9.443699
2022-08-30T11:09:26.663Z,9.443648
2022-08-30T11:10:26.148Z,9.443636
2022-08-30T11:11:26.918Z,9.443634
2022-08-30T11:13:27.171Z,9.443638
2022-08-30T11:14:26.150Z,9.443572
2022-08-30T11:15:26.121Z,9.443692
2022-08-30T11:16:26.138Z,9.443610
2022-08-30T11:17:26.107Z,9.443627
2022-08-30T11:18:26.128Z,9.443625
2022-08-30T11:19:26.219Z,9.443645
2022-08-30T11:20:26.104Z,9.443664
2022-08-30T11:21:26.092Z,9.443647
2022-08-30T11:22:26.096Z,9.443663
2022-08-30T11:23:26.092Z,9.443679
2022-08-30T11:24:26.085Z,9.443593
2022-08-30T11:25:26.075Z,9.443673
2022-08-30T11:26:26.069Z,9.443629
2022-08-30T11:27:26.077Z,9.443692
2022-08-30T11:28:26.063Z,9.443678
2022-08-30T11:29:27.102Z,9.443668
2022-08-30T11:30:26.592Z,9.443693
2022-08-30T11:31:26.062Z,9.443687
2022-08-30T11:32:26.040Z,9.443642
2022-08-30T11:33:26.092Z,9.443660
2022-08-30T11:34:26.019Z,9.443567
2022-08-30T11:35:26.049Z,9.443645
2022-08-30T11:36:26.034Z,9.443679
2022-08-30T11:37:26.033Z,9.443464
2022-08-30T11:38:26.014Z,9.443524
2022-08-30T11:39:25.993Z,9.443660
2022-08-30T11:40:26.034Z,9.443554
2022-08-30T11:41:27.290Z,9.443445
2022-08-30T11:42:29.601Z,9.443600
2022-08-30T11:43:25.985Z,9.443601
2022-08-30T11:44:25.977Z,9.443627
2022-08-30T11:45:28.089Z,9.443734